Time;durP1;ratioP1;P1;durP2;ratioP2;P2;SDS_P1;SDS_P2;PMS_P1;PMS_P2;Temp;Humidity;BMP_temperature;BMP_pressure;BME280_temperature;BME280_humidity;BME280_pressure;Samples;Min_cycle;Max_cycle;Signal;HPM_P1;HPM_P2
2022/05/18 00:00:23;;;;;;;2.50;1.60;;;;;;;13.83;52.03;101838.53;5022051;28;20427;-72
2022/05/18 00:02:52;;;;;;;3.20;2.20;;;;;;;13.80;51.90;101841.63;5020509;28;20459;-73
2022/05/18 00:05:21;;;;;;;1.63;1.27;;;;;;;13.80;51.96;101842.47;5019958;28;20441;-73
2022/05/18 00:07:51;;;;;;;2.93;2.50;;;;;;;13.84;51.68;101851.09;5019311;28;20465;-72
2022/05/18 00:10:22;;;;;;;3.77;1.90;;;;;;;13.84;51.82;101848.38;5014819;28;20445;-71
2022/05/18 00:12:54;;;;;;;3.60;1.90;;;;;;;13.80;51.88;101852.50;5014798;28;20429;-71
2022/05/18 00:15:26;;;;;;;6.20;1.63;;;;;;;13.80;51.60;101860.66;5014518;28;20825;-73
2022/05/18 00:17:56;;;;;;;2.77;2.10;;;;;;;13.74;51.76;101861.50;5014086;28;20424;-71
2022/05/18 00:20:26;;;;;;;1.93;1.67;;;;;;;13.72;51.59;101863.56;5015645;28;20449;-71
2022/05/18 00:22:57;;;;;;;3.70;1.83;;;;;;;13.69;51.95;101867.53;5024412;28;20449;-73
2022/05/18 00:25:30;;;;;;;2.80;2.17;;;13.60;30.40;;;13.63;51.99;101864.75;5020501;28;20428;-71
2022/05/18 00:28:00;;;;;;;3.80;2.50;;;13.60;29.90;;;13.68;51.35;101871.28;5019352;28;20464;-71
2022/05/18 00:30:31;;;;;;;2.37;1.80;;;13.60;28.90;;;13.72;51.23;101878.00;5020648;28;20535;-71
2022/05/18 00:33:04;;;;;;;9.73;2.10;;;13.60;28.50;;;13.74;50.96;101880.53;5014734;28;20533;-71
2022/05/18 00:35:36;;;;;;;3.43;2.27;;;13.60;28.30;;;13.76;50.87;101881.16;5012493;28;20432;-72
2022/05/18 00:38:07;;;;;;;5.13;2.40;;;13.70;28.10;;;13.75;50.65;101880.31;5011842;28;20433;-70
2022/05/18 00:40:49;;;;;;;3.40;3.10;;;13.70;27.80;;;13.66;50.83;101891.56;5012481;28;20565;-72
2022/05/18 00:43:35;;;;;;;2.73;2.00;;;13.60;27.70;;;13.71;50.82;101900.81;5011812;28;20463;-73
2022/05/18 00:46:10;;;;;;;3.33;1.77;;;13.60;27.10;;;13.76;50.12;101894.75;5012454;28;20513;-71
2022/05/18 00:48:40;;;;;;;4.70;2.30;;;13.60;26.80;;;13.75;49.55;101901.22;5011232;28;20453;-69
2022/05/18 00:51:18;;;;;;;5.23;2.47;;;13.70;26.40;;;13.72;49.66;101904.38;5011752;28;20453;-72
2022/05/18 00:53:54;;;;;;;2.80;2.10;;;13.60;26.20;;;13.77;49.31;101912.78;5011549;28;20444;-72
2022/05/18 00:56:33;;;;;;;2.10;1.90;;;13.60;25.70;;;13.70;49.50;101909.19;5011550;28;20512;-71
2022/05/18 00:59:08;;;;;;;2.60;1.87;;;13.60;25.60;;;13.61;49.49;101918.50;5011722;28;20421;-72
2022/05/18 01:01:39;;;;;;;7.03;2.63;;;13.50;25.30;;;13.61;48.90;101918.50;5011726;28;20796;-72
2022/05/18 01:04:11;;;;;;;2.67;1.73;;;13.50;24.30;;;13.61;48.41;101923.94;5011884;28;20928;-73
2022/05/18 01:06:47;;;;;;;4.53;1.90;;;13.50;23.30;;;13.59;48.66;101923.31;5012984;28;20836;-70
2022/05/18 01:09:24;;;;;;;4.43;2.00;;;13.50;22.90;;;13.56;48.83;101929.13;5012902;28;20472;-72
2022/05/18 01:11:55;;;;;;;3.23;2.13;;;13.50;23.40;;;13.52;47.97;101927.84;5012705;28;20483;-71
2022/05/18 01:14:29;;;;;;;2.30;1.60;;;13.50;22.70;;;13.45;48.26;101934.09;5012888;28;20793;-73
2022/05/18 01:16:59;;;;;;;2.73;2.00;;;;;;;13.47;47.78;101932.00;5011556;28;20414;-71
2022/05/18 01:19:38;;;;;;;3.97;1.67;;;13.40;22.40;;;13.44;47.43;101932.41;5011122;28;20380;-72
2022/05/18 01:22:21;;;;;;;2.50;1.60;;;13.40;22.40;;;13.42;47.18;101937.19;5010713;28;20692;-70
2022/05/18 01:25:03;;;;;;;9.27;2.47;;;13.30;21.70;;;13.35;47.01;101944.44;5011447;28;20421;-71
2022/05/18 01:27:34;;;;;;;2.03;1.40;;;13.30;20.70;;;13.29;46.99;101938.94;5011162;28;20460;-71
2022/05/18 01:30:04;;;;;;;4.30;2.30;;;13.20;20.50;;;13.21;47.21;101952.69;5010566;28;20543;-72
2022/05/18 01:32:41;;;;;;;2.27;1.60;;;13.20;20.60;;;13.20;47.61;101950.97;5010810;28;20421;-72
2022/05/18 01:35:14;;;;;;;4.97;2.57;;;13.10;21.10;;;13.09;47.69;101955.00;5011194;28;20403;-70
2022/05/18 01:37:43;;;;;;;7.23;2.17;;;13.10;21.10;;;13.14;47.06;101962.63;5010300;28;20661;-70
2022/05/18 01:40:17;;;;;;;3.67;1.40;;;;;;;13.09;47.03;101955.00;5010654;28;20533;-73
2022/05/18 01:42:52;;;;;;;3.30;1.70;;;;;;;13.06;47.08;101960.84;5010710;28;20428;-72
2022/05/18 01:45:22;;;;;;;2.80;1.77;;;;;;;12.95;47.33;101955.91;5010619;28;20417;-71
2022/05/18 01:47:52;;;;;;;3.10;1.40;;;;;;;12.94;47.58;101960.50;5010493;28;20476;-72
2022/05/18 01:50:26;;;;;;;2.30;1.27;;;;;;;12.99;47.24;101963.47;5010541;28;20871;-71
2022/05/18 01:52:55;;;;;;;1.83;1.30;;;;;;;12.93;47.08;101971.56;5008455;28;20427;-70
2022/05/18 01:55:25;;;;;;;2.70;1.10;;;12.80;19.90;;;12.97;47.12;101970.16;5011128;28;20387;-72
2022/05/18 01:57:55;;;;;;;4.73;1.67;;;12.90;19.60;;;12.91;46.74;101969.03;5010889;28;20440;-73
2022/05/18 02:00:24;;;;;;;3.40;1.00;;;12.80;19.20;;;12.80;46.99;101966.81;5011183;28;20441;-72
2022/05/18 02:02:52;;;;;;;3.40;1.40;;;12.70;18.50;;;12.72;47.03;101974.25;5010437;28;20803;-73
2022/05/18 02:05:22;;;;;;;2.20;1.70;;;12.70;18.10;;;12.81;46.92;101967.66;5010582;28;20426;-72
2022/05/18 02:07:52;;;;;;;1.57;1.03;;;12.70;17.70;;;12.84;46.05;101967.28;5010532;28;20388;-73
2022/05/18 02:10:20;;;;;;;1.30;1.20;;;12.70;17.50;;;12.77;46.18;101972.63;5010526;28;20579;-70
2022/05/18 02:12:49;;;;;;;3.10;1.57;;;12.70;17.10;;;12.64;46.57;101973.31;5010077;28;20520;-73
2022/05/18 02:15:22;;;;;;;1.70;0.97;;;12.60;17.00;;;12.67;45.89;101976.69;5009776;28;20520;-71
2022/05/18 02:17:52;;;;;;;2.30;1.70;;;12.60;16.00;;;12.68;45.76;101978.38;5008772;28;20803;-72
2022/05/18 02:20:21;;;;;;;5.13;1.67;;;12.60;15.60;;;12.60;45.83;101982.88;5009931;28;20439;-73
2022/05/18 02:22:51;;;;;;;6.93;2.53;;;12.60;15.40;;;12.58;45.75;101974.09;5009813;28;20487;-71
2022/05/18 02:25:21;;;;;;;1.53;1.17;;;12.60;15.10;;;12.53;45.53;101979.25;5010219;28;20536;-71
2022/05/18 02:27:51;;;;;;;5.57;1.80;;;12.50;14.00;;;12.63;44.84;101977.03;5010523;28;20425;-71
2022/05/18 02:30:21;;;;;;;1.37;1.10;;;12.50;12.90;;;12.62;44.78;101980.81;5009923;28;20473;-71
2022/05/18 02:32:50;;;;;;;4.07;1.20;;;12.50;13.50;;;12.49;44.84;101983.34;5011586;28;20944;-71
2022/05/18 02:35:19;;;;;;;1.50;1.20;;;12.40;12.90;;;12.40;45.46;101992.59;5010434;28;20849;-72
2022/05/18 02:37:48;;;;;;;2.27;1.27;;;12.40;11.60;;;12.44;44.79;101993.91;5014537;28;20460;-72
2022/05/18 02:40:17;;;;;;;1.30;1.20;;;12.40;12.00;;;12.47;44.39;101977.25;5012079;28;20997;-72
2022/05/18 02:42:46;;;;;;;1.60;1.17;;;12.40;11.10;;;12.40;44.48;101989.88;5008844;28;20780;-70
2022/05/18 02:45:15;;;;;;;1.87;0.90;;;12.30;9.90;;;12.38;44.59;101994.69;5009937;28;20424;-72
2022/05/18 02:47:45;;;;;;;3.33;1.00;;;12.30;10.50;;;12.36;44.28;101990.47;5010040;28;20483;-71
2022/05/18 02:50:14;;;;;;;5.03;1.40;;;12.30;9.70;;;12.34;44.01;101989.81;5010644;28;20460;-70
2022/05/18 02:52:43;;;;;;;1.97;1.03;;;12.30;10.10;;;12.30;43.96;101992.03;5014255;28;20472;-72
2022/05/18 02:57:59;;;;;;;1.90;1.40;;;12.20;9.30;;;12.29;43.78;101984.94;5013971;28;20429;-71
2022/05/18 03:00:28;;;;;;;3.03;1.37;;;12.20;9.30;;;12.30;43.32;101986.63;5013780;28;20488;-72
2022/05/18 03:02:58;;;;;;;1.60;1.20;;;12.20;8.80;;;12.16;43.58;101990.16;5013785;28;20886;-71
2022/05/18 03:05:27;;;;;;;2.67;1.27;;;12.10;8.10;;;12.15;43.55;101991.22;5014899;28;20511;-70
2022/05/18 03:07:58;;;;;;;1.30;0.80;;;12.10;8.90;;;12.16;43.33;101998.31;5014258;28;20402;-73
2022/05/18 03:10:27;;;;;;;1.87;1.20;;;12.10;8.40;;;12.06;43.64;101990.44;5014199;28;20523;-70
2022/05/18 03:12:55;;;;;;;2.03;1.20;;;12.00;8.30;;;12.17;43.44;101997.28;5014094;28;20509;-72
2022/05/18 03:15:24;;;;;;;2.60;1.60;;;12.10;8.50;;;12.22;43.08;101988.59;5013855;28;20953;-71
2022/05/18 03:17:54;;;;;;;1.50;1.40;;;12.10;8.60;;;12.14;42.83;101990.38;5013616;28;20417;-70
2022/05/18 03:25:57;;;;;;;2.23;1.10;;;12.10;7.20;;;12.19;42.37;102000.66;5013230;28;20413;-72
2022/05/18 03:28:26;;;;;;;1.70;1.40;;;12.10;6.40;;;12.47;42.17;101999.00;5013308;28;20479;-72
2022/05/18 03:30:55;;;;;;;3.20;1.40;;;12.20;7.10;;;12.82;41.00;102001.94;5013200;28;20476;-71
2022/05/18 03:33:24;;;;;;;1.40;1.07;;;12.30;6.10;;;13.14;40.05;102006.09;5013146;28;20898;-71
2022/05/18 03:35:55;;;;;;;1.50;1.00;;;12.50;5.40;;;13.21;39.80;102010.59;5013231;28;20395;-71
2022/05/18 03:38:24;;;;;;;2.57;1.60;;;12.60;5.00;;;13.12;39.91;102024.50;5012927;28;20428;-70
2022/05/18 03:40:53;;;;;;;1.93;1.00;;;12.70;5.00;;;13.39;39.71;102016.44;5013874;28;20437;-71
2022/05/18 03:43:23;;;;;;;2.30;1.20;;;12.70;4.50;;;13.46;39.48;102025.47;5013405;28;20805;-71
2022/05/18 03:45:52;;;;;;;2.40;1.17;;;12.90;4.50;;;13.54;38.78;102031.84;5012897;28;20425;-72
2022/05/18 03:48:20;;;;;;;1.30;1.00;;;13.00;4.00;;;13.23;39.30;102030.25;5013088;28;20435;-70
2022/05/18 03:50:50;;;;;;;1.40;0.90;;;12.90;3.90;;;12.96;40.12;102031.81;5012744;28;20472;-71
2022/05/18 03:53:21;;;;;;;1.73;0.97;;;12.80;3.90;;;12.92;40.03;102029.66;5012901;28;20487;-71
2022/05/18 03:55:50;;;;;;;2.30;1.13;;;12.60;3.00;;;13.03;40.12;102042.75;5012674;28;20452;-71
2022/05/18 03:58:20;;;;;;;2.17;1.27;;;12.70;4.40;;;12.87;39.76;102032.09;5012636;28;20425;-72
2022/05/18 04:00:52;;;;;;;5.83;1.17;;;12.60;3.60;;;12.88;40.11;102040.03;5012518;28;20449;-73
2022/05/18 04:03:27;;;;;;;2.20;1.30;;;12.60;3.50;;;13.17;39.63;102033.75;5012639;28;20520;-72
2022/05/18 04:05:56;;;;;;;2.03;1.10;;;12.70;3.60;;;13.49;38.81;102043.31;5013104;28;20523;-70
2022/05/18 04:08:26;;;;;;;2.20;1.50;;;12.90;2.30;;;13.16;38.89;102037.50;5012638;28;20432;-71
2022/05/18 04:10:56;;;;;;;2.13;1.10;;;12.80;3.20;;;13.26;39.14;102048.94;5012635;28;20527;-71
2022/05/18 04:13:26;;;;;;;1.93;1.07;;;12.80;2.60;;;13.32;39.13;102042.69;5012775;28;20433;-71
2022/05/18 04:15:56;;;;;;;2.23;1.50;;;12.90;3.70;;;13.53;38.96;102039.16;5011571;28;20444;-73
2022/05/18 04:18:25;;;;;;;1.77;1.20;;;13.00;2.80;;;14.26;37.49;102040.63;5012897;28;20429;-71
2022/05/18 04:20:56;;;;;;;2.00;1.33;;;13.30;2.00;;;15.26;36.32;102042.84;5013397;28;20480;-71
2022/05/18 04:23:27;;;;;;;1.57;0.90;;;13.70;1.50;;;16.55;34.58;102034.09;5016479;28;20428;-72
2022/05/18 04:25:56;;;;;;;1.30;1.00;;;14.30;1.00;;;16.60;34.24;102031.59;5019571;28;20452;-72
2022/05/18 04:28:26;;;;;;;2.00;1.40;;;14.80;1.00;;;17.01;33.94;102044.91;5019580;28;20425;-70
2022/05/18 04:30:54;;;;;;;3.10;1.63;;;15.10;1.00;;;16.58;34.27;102033.69;5019623;28;21061;-72
2022/05/18 04:33:26;;;;;;;2.10;0.90;;;15.30;1.00;;;16.28;33.94;102037.91;5019501;28;20425;-72
2022/05/18 04:35:55;;;;;;;2.00;1.33;;;15.30;1.00;;;15.76;34.92;102039.63;5013934;28;20963;-70
2022/05/18 04:38:24;;;;;;;2.90;1.37;;;14.90;1.00;;;15.32;35.63;102040.13;5012017;28;20487;-71
2022/05/18 04:40:58;;;;;;;1.83;0.90;;;14.50;1.00;;;15.72;35.36;102032.91;5010877;28;20477;-71
2022/05/18 04:43:27;;;;;;;3.10;1.17;;;14.60;1.00;;;15.45;35.43;102034.69;5012250;28;20520;-71
2022/05/18 04:45:56;;;;;;;2.40;1.00;;;14.60;1.00;;;15.11;36.18;102052.00;5012710;28;20428;-70
2022/05/18 04:48:30;;;;;;;3.10;1.67;;;14.30;1.00;;;15.63;35.17;102050.53;5011051;28;20437;-71
2022/05/18 04:51:00;;;;;;;2.40;1.30;;;14.60;1.00;;;16.57;35.00;102053.00;5012478;28;20473;-72
2022/05/18 04:53:28;;;;;;;1.77;0.90;;;14.90;1.00;;;16.26;34.55;102057.28;5012459;28;20528;-70
2022/05/18 04:55:58;;;;;;;1.93;1.10;;;14.90;1.00;;;16.70;34.30;102053.81;5010343;28;20440;-71
2022/05/18 04:58:27;;;;;;;1.63;1.10;;;15.30;1.00;;;16.38;34.16;102062.91;5011505;28;21001;-71
2022/05/18 05:01:02;;;;;;;1.80;0.93;;;15.20;1.00;;;15.45;35.52;102061.13;5015194;28;20475;-71
2022/05/18 05:03:31;;;;;;;2.00;1.13;;;14.90;1.00;;;15.54;36.32;102057.22;5016407;28;20492;-72
2022/05/18 05:06:02;;;;;;;1.40;0.90;;;14.60;1.00;;;15.58;35.96;102066.69;5016332;28;20437;-72
2022/05/18 05:08:34;;;;;;;2.60;1.37;;;14.60;1.00;;;15.26;36.36;102067.38;5012010;28;20417;-71
2022/05/18 05:11:05;;;;;;;1.87;1.20;;;14.50;1.00;;;15.51;36.46;102068.53;5011598;28;20556;-71
2022/05/18 05:13:35;;;;;;;4.17;1.63;;;14.60;1.00;;;15.52;36.36;102070.22;5010870;28;21009;-71
2022/05/18 05:16:07;;;;;;;2.00;1.30;;;14.60;1.00;;;15.50;36.22;102066.81;5010803;28;20951;-71
2022/05/18 05:18:37;;;;;;;1.73;1.10;;;14.60;1.00;;;15.43;36.93;102071.44;5008984;28;20413;-71
2022/05/18 05:21:06;;;;;;;1.80;1.00;;;14.60;1.00;;;15.44;36.83;102073.13;4996261;28;20425;-72
2022/05/18 05:23:35;;;;;;;1.87;1.30;;;14.50;1.00;;;15.69;36.23;102070.66;4995720;28;20532;-71
2022/05/18 05:26:05;;;;;;;4.13;1.73;;;14.70;1.00;;;15.45;36.35;102069.31;5002001;28;20411;-71
2022/05/18 05:28:34;;;;;;;1.60;1.00;;;14.70;1.00;;;15.18;37.49;102074.72;5013296;28;20460;-71
2022/05/18 05:31:04;;;;;;;2.53;1.37;;;14.60;1.00;;;14.74;38.10;102079.72;5011000;28;20435;-71
2022/05/18 05:33:34;;;;;;;1.27;1.10;;;14.40;1.00;;;14.42;38.36;102070.31;5011748;28;20892;-72
2022/05/18 05:36:05;;;;;;;2.87;1.17;;;14.20;1.00;;;14.50;38.76;102074.75;5011118;28;20505;-71
2022/05/18 05:38:34;;;;;;;1.67;1.23;;;14.10;1.70;;;14.31;39.04;102077.13;5012091;28;20421;-71
2022/05/18 05:41:04;;;;;;;4.30;1.47;;;13.90;1.60;;;14.63;38.96;102080.28;5010844;28;20411;-71
2022/05/18 05:43:33;;;;;;;1.37;1.10;;;14.10;2.10;;;14.44;38.86;102083.72;5010674;28;20682;-73
2022/05/18 05:46:06;;;;;;;2.83;2.03;;;14.10;1.60;;;14.68;39.25;102077.81;5010468;28;20425;-72
2022/05/18 05:48:36;;;;;;;2.00;1.50;;;14.20;3.00;;;14.95;40.09;102079.66;5009353;28;20566;-72
2022/05/18 05:51:05;;;;;;;8.17;1.40;;;14.30;3.80;;;14.97;38.61;102083.00;5010299;28;20473;-70
2022/05/18 05:53:34;;;;;;;5.53;1.50;;;14.40;2.70;;;14.92;38.94;102080.03;5010496;28;20468;-71
2022/05/18 05:56:05;;;;;;;2.57;1.10;;;14.50;2.50;;;14.99;38.96;102080.91;5009838;28;20906;-71
2022/05/18 05:58:35;;;;;;;3.30;1.20;;;14.50;2.30;;;14.97;38.96;102082.16;5009705;28;20528;-71
2022/05/18 06:01:06;;;;;;;3.73;1.50;;;14.50;2.60;;;15.04;38.96;102089.34;5010783;28;20449;-71
2022/05/18 06:03:36;;;;;;;2.37;1.53;;;14.60;2.50;;;15.01;38.83;102089.72;5010904;28;20477;-70
2022/05/18 06:06:08;;;;;;;1.90;1.10;;;14.60;2.30;;;15.04;38.85;102083.88;5009543;28;20528;-71
2022/05/18 06:08:38;;;;;;;2.00;1.20;;;14.60;2.20;;;15.05;39.00;102080.13;5008814;28;20406;-71
2022/05/18 06:11:11;;;;;;;3.90;2.00;;;14.70;2.60;;;15.09;39.16;102086.00;4961857;28;20539;-71
2022/05/18 06:13:42;;;;;;;2.73;1.40;;;14.70;2.70;;;15.00;39.29;102088.06;5010131;28;20430;-71
2022/05/18 06:16:11;;;;;;;2.40;1.90;;;14.70;2.80;;;15.36;39.47;102092.38;5008263;28;20491;-71
2022/05/18 06:18:40;;;;;;;3.10;1.40;;;14.80;3.30;;;15.45;39.32;102089.25;5010157;28;20946;-72
2022/05/18 06:21:08;;;;;;;2.07;1.20;;;15.00;3.40;;;15.66;38.63;102091.03;5008887;28;20506;-72
2022/05/18 06:23:37;;;;;;;2.00;1.47;;;15.10;3.30;;;15.97;39.12;102085.84;5025061;28;20432;-71
2022/05/18 06:26:08;;;;;;;2.17;1.50;;;15.30;4.30;;;16.11;38.61;102088.56;5009050;28;20532;-71
2022/05/18 06:28:37;;;;;;;2.07;1.10;;;15.50;4.00;;;15.87;38.15;102093.59;5010287;28;20444;-71
2022/05/18 06:31:06;;;;;;;1.83;1.13;;;15.50;3.10;;;15.73;38.89;102094.63;5021975;28;20447;-73
2022/05/18 06:33:35;;;;;;;5.63;1.63;;;15.40;3.60;;;15.85;38.92;102094.84;5009804;28;20422;-73
2022/05/18 06:36:05;;;;;;;3.37;1.30;;;15.50;3.00;;;16.04;38.58;102089.41;5008509;28;20483;-71
2022/05/18 06:38:34;;;;;;;4.00;1.73;;;15.60;3.10;;;15.82;39.10;102098.84;5008844;28;20757;-72
2022/05/18 06:43:52;;;;;;;2.90;1.67;;;15.50;2.80;;;15.97;39.26;102102.22;5010061;28;20437;-71
2022/05/18 06:46:23;;;;;;;3.83;1.83;;;15.60;3.20;;;16.02;39.23;102105.13;5011334;28;20428;-71
2022/05/18 06:48:52;;;;;;;2.10;1.90;;;15.70;4.60;;;15.98;39.51;102098.41;5013313;28;20421;-71
2022/05/18 06:51:24;;;;;;;3.30;1.80;;;15.70;4.90;;;16.28;39.61;102108.94;5012508;28;20472;-73
2022/05/18 06:53:55;;;;;;;2.90;1.47;;;15.80;5.90;;;16.50;39.09;102107.69;5012517;28;20886;-73
2022/05/18 06:56:27;;;;;;;2.70;2.17;;;16.10;5.00;;;16.75;39.80;102111.44;5012615;28;20915;-73
2022/05/18 06:58:58;;;;;;;2.43;1.33;;;16.30;6.00;;;16.72;38.61;102111.88;5012793;28;20771;-72
2022/05/18 07:01:28;;;;;;;4.07;2.13;;;16.40;3.80;;;16.79;38.80;102107.25;5011897;28;20456;-73
2022/05/18 07:03:59;;;;;;;2.63;1.67;;;16.40;3.90;;;17.00;39.11;102102.53;5012602;28;20425;-74
2022/05/18 07:06:32;;;;;;;1.50;1.10;;;16.50;3.30;;;17.15;38.52;102108.59;5010582;28;20392;-71
2022/05/18 07:09:01;;;;;;;2.33;1.60;;;16.70;5.30;;;17.21;38.72;102099.53;5010182;28;20421;-72
2022/05/18 07:11:30;;;;;;;3.20;2.30;;;16.80;4.90;;;17.29;38.90;102097.38;5010487;28;20823;-73
2022/05/18 07:14:00;;;;;;;3.10;1.70;;;17.00;5.00;;;17.46;39.06;102102.34;5018091;28;20508;-74
2022/05/18 07:16:29;;;;;;;2.57;1.50;;;17.10;5.40;;;17.62;38.86;102101.88;5019338;28;20435;-74
2022/05/18 07:18:58;;;;;;;3.83;2.23;;;17.20;4.20;;;17.99;38.50;102108.38;5035597;28;20451;-75
2022/05/18 07:21:29;;;;;;;8.33;2.10;;;17.50;3.10;;;17.65;38.50;102107.75;5029242;28;20790;-74
2022/05/18 07:23:58;;;;;;;3.97;2.63;;;17.50;2.80;;;17.68;38.99;102107.31;5028839;28;20429;-74
2022/05/18 07:26:29;;;;;;;2.00;1.80;;;17.50;5.40;;;17.79;39.04;102108.50;5027274;28;20950;-75
2022/05/18 07:29:00;;;;;;;2.53;2.27;;;17.50;5.00;;;17.80;39.37;102110.19;5021799;28;21001;-72
2022/05/18 07:31:29;;;;;;;2.70;2.17;;;17.50;6.10;;;18.02;39.65;102107.91;5019609;28;20514;-72
2022/05/18 07:34:19;;;;;;;3.20;2.33;;;17.70;6.40;;;18.07;38.93;102119.88;5019795;28;20491;-72
2022/05/18 07:36:47;;;;;;;2.60;2.27;;;17.80;5.60;;;17.79;39.14;102112.09;5011179;28;20874;-73
2022/05/18 07:39:16;;;;;;;4.80;2.80;;;17.60;5.30;;;17.93;39.89;102115.56;5019234;28;20857;-71
2022/05/18 07:41:45;;;;;;;4.03;2.40;;;17.60;4.80;;;18.46;38.58;102110.50;5026182;28;20845;-72
2022/05/18 07:44:15;;;;;;;2.87;1.87;;;17.90;3.10;;;18.61;38.33;102108.28;5017141;28;20441;-70
2022/05/18 07:46:43;;;;;;;3.60;2.20;;;18.10;4.10;;;18.38;38.33;102113.53;5021886;28;20407;-71
2022/05/18 07:49:12;;;;;;;2.93;1.90;;;18.10;4.40;;;18.59;38.98;102099.44;5012423;28;20951;-71
2022/05/18 07:51:41;;;;;;;4.20;2.58;;;18.30;4.50;;;18.82;38.64;102103.44;5013755;28;20460;-72
2022/05/18 07:54:11;;;;;;;4.30;3.20;;;18.50;4.60;;;18.96;39.26;102105.81;5012270;28;20562;-72
2022/05/18 07:56:41;;;;;;;3.90;2.53;;;18.60;5.20;;;19.26;39.29;102105.03;5012807;28;20523;-71
2022/05/18 07:59:11;;;;;;;3.10;2.30;;;18.80;6.10;;;19.40;39.01;102099.13;5012993;28;20523;-71
2022/05/18 08:01:42;;;;;;;3.60;2.80;;;19.00;6.30;;;19.68;38.00;102097.72;5029115;28;20467;-70
2022/05/18 08:04:11;;;;;;;3.60;2.60;;;19.30;6.30;;;19.41;37.78;102103.53;5027959;28;20431;-72
2022/05/18 08:06:40;;;;;;;7.73;2.67;;;19.20;5.60;;;19.35;38.09;102101.72;5034521;28;20407;-72
2022/05/18 08:09:09;;;;;;;3.70;2.50;;;19.20;5.80;;;19.09;38.90;102099.31;5024206;28;20631;-72
2022/05/18 08:17:12;;;;;;;6.10;2.83;;;18.70;7.70;;;19.05;40.08;102109.06;5016890;28;20432;-71
2022/05/18 08:19:41;;;;;;;5.70;2.87;;;18.80;7.90;;;19.09;39.53;102102.91;5016455;28;20499;-71
2022/05/18 08:22:09;;;;;;;4.47;2.93;;;18.80;7.70;;;19.15;39.19;102098.41;5009612;28;20443;-74
2022/05/18 08:24:38;;;;;;;4.30;3.20;;;18.90;7.30;;;19.08;39.90;102108.59;5016450;28;20399;-71
2022/05/18 08:27:14;;;;;;;3.50;3.20;;;18.80;7.60;;;19.22;39.59;102110.13;5012556;28;20461;-72
2022/05/18 08:29:43;;;;;;;7.53;2.50;;;18.90;7.40;;;19.47;39.67;102093.56;5010805;28;20411;-71
2022/05/18 08:32:13;;;;;;;4.17;3.03;;;19.10;7.90;;;19.46;39.18;102089.97;5010563;28;20484;-71
2022/05/18 08:34:42;;;;;;;3.57;2.83;;;19.20;7.20;;;19.58;39.82;102091.94;5012011;28;20388;-72
2022/05/18 08:37:11;;;;;;;3.30;3.00;;;19.30;8.10;;;19.69;39.72;102089.25;5011358;28;20437;-71
2022/05/18 08:39:41;;;;;;;4.33;3.07;;;19.30;8.10;;;19.89;39.25;102106.28;5011877;28;20993;-73
2022/05/18 08:42:11;;;;;;;5.10;3.27;;;19.50;7.70;;;19.83;39.61;102095.38;5011620;28;20427;-72
2022/05/18 08:44:40;;;;;;;4.50;3.23;;;19.50;7.90;;;19.69;39.80;102094.75;5010926;28;20426;-73
2022/05/18 08:47:19;;;;;;;4.20;3.27;;;19.50;7.90;;;19.80;40.36;102093.13;5012240;28;20473;-72
2022/05/18 08:49:58;;;;;;;3.20;2.90;;;19.60;8.70;;;19.87;39.35;102082.84;5010867;28;20428;-71
2022/05/18 08:52:47;;;;;;;3.53;3.10;;;19.60;8.40;;;20.03;38.79;102081.34;5018451;28;20525;-71
2022/05/18 08:55:53;;;;;;;3.77;2.60;;;19.70;7.60;;;19.96;39.28;102084.19;5029278;28;20414;-73
2022/05/18 08:58:36;;;;;;;4.70;2.87;;;19.80;7.70;;;20.01;38.87;102077.97;5012773;28;20439;-74
2022/05/18 09:01:13;;;;;;;4.80;2.63;;;19.70;7.30;;;19.98;40.08;102089.44;5019566;28;20441;-73
2022/05/18 09:03:49;;;;;;;6.97;3.57;;;19.70;8.70;;;20.01;40.22;102089.81;5013385;28;20448;-73
2022/05/18 09:06:31;;;;;;;9.07;3.50;;;19.70;9.30;;;20.27;40.37;102075.63;5012443;28;20403;-71
2022/05/18 09:11:53;;;;;;;3.70;2.93;;;20.10;9.50;;;20.53;39.92;102085.34;5011343;28;20474;-72
2022/05/18 09:14:30;;;;;;;6.83;4.00;;;20.20;10.10;;;20.78;38.98;102074.06;5010012;28;20435;-73
2022/05/18 09:17:15;;;;;;;4.43;3.70;;;20.40;9.20;;;20.89;39.26;102070.47;5011139;28;20499;-73
2022/05/18 09:20:04;;;;;;;2.77;2.57;;;20.50;10.10;;;20.72;39.72;102075.06;5009701;28;20447;-72
2022/05/18 09:23:06;;;;;;;6.23;3.80;;;20.50;10.20;;;20.80;39.27;102071.94;5011205;28;20504;-72
2022/05/18 09:25:56;;;;;;;4.80;4.30;;;20.50;9.90;;;20.83;40.25;102068.69;5022806;28;20993;-71
2022/05/18 09:28:50;;;;;;;4.77;3.77;;;20.50;10.90;;;20.85;40.64;102069.28;5028517;28;20599;-75
2022/05/18 09:31:44;;;;;;;7.23;3.77;;;20.50;11.30;;;20.54;40.43;102069.69;5025157;28;20442;-73
2022/05/18 09:34:37;;;;;;;4.30;3.90;;;20.40;10.80;;;20.75;40.91;102066.31;5024911;28;20877;-73
2022/05/18 09:37:29;;;;;;;5.13;3.70;;;20.40;11.10;;;20.81;40.96;102062.59;5027886;28;20440;-73
2022/05/18 09:40:07;;;;;;;4.87;3.90;;;20.50;11.80;;;21.06;39.99;102068.63;5027247;28;20733;-74
2022/05/18 09:42:41;;;;;;;4.33;3.80;;;20.70;11.10;;;21.13;40.25;102072.13;5023645;28;20501;-74
2022/05/18 09:45:15;;;;;;;3.67;3.20;;;20.80;11.40;;;21.43;40.08;102063.63;5019986;28;20428;-73
2022/05/18 09:47:51;;;;;;;4.30;3.90;;;;;;;21.44;39.93;102064.47;5014692;28;20444;-70
2022/05/18 09:50:21;;;;;;;5.67;5.10;;;;;;;21.44;40.78;102057.06;5010958;28;20487;-71
2022/05/18 09:52:52;;;;;;;5.17;3.83;;;;;;;21.80;40.09;102058.53;5018279;28;20538;-73
2022/05/18 09:55:25;;;;;;;3.93;3.50;;;;;;;21.71;39.74;102057.28;5016485;28;20507;-73
2022/05/18 09:58:02;;;;;;;4.30;3.90;;;;;;;21.69;40.44;102053.91;5029838;28;20505;-70
2022/05/18 10:00:33;;;;;;;7.33;4.70;;;;;;;21.77;40.68;102053.53;5019893;28;20452;-73
2022/05/18 10:08:52;;;;;;;6.03;4.37;;;;;;;22.29;40.25;102045.03;5022419;28;20410;-71
2022/05/18 10:11:24;;;;;;;4.50;3.93;;;;;;;22.24;40.30;102044.94;5024416;28;20526;-72
2022/05/18 10:14:02;;;;;;;5.70;5.10;;;;;;;22.40;40.38;102044.09;5008462;28;20475;-74
2022/05/18 10:16:39;;;;;;;4.53;4.13;;;;;;;22.40;40.61;102035.84;5009237;28;20930;-71
2022/05/18 10:19:17;;;;;;;6.37;5.13;;;;;;;22.77;41.19;102036.09;5009302;28;20411;-72
2022/05/18 10:21:55;;;;;;;6.20;5.03;;;22.30;14.40;;;22.82;40.99;102033.41;5011252;28;20448;-73
2022/05/18 10:24:40;;;;;;;6.13;4.97;;;22.60;12.40;;;22.82;40.07;102039.75;5011102;28;20442;-71
2022/05/18 10:27:22;;;;;;;5.40;4.93;;;22.50;10.90;;;22.91;39.57;102032.69;5010006;28;20436;-72
2022/05/18 10:30:09;;;;;;;5.37;4.40;;;22.60;10.10;;;22.81;39.88;102031.72;5011062;28;20411;-72
2022/05/18 10:32:55;;;;;;;7.00;5.00;;;22.60;9.80;;;22.60;40.13;102027.84;5011624;28;20648;-72
2022/05/18 10:35:39;;;;;;;5.20;4.70;;;22.40;9.70;;;22.83;39.94;102027.63;5012288;28;20407;-71
2022/05/18 10:38:20;;;;;;;5.63;4.90;;;22.50;10.20;;;23.32;40.12;102022.97;5012802;28;20441;-73
2022/05/18 10:40:53;;;;;;;4.80;4.30;;;22.80;10.40;;;23.45;39.78;102021.75;5012872;28;20423;-71
2022/05/18 10:43:32;;;;;;;6.33;5.40;;;23.00;8.80;;;23.71;39.54;102023.69;5011610;28;20464;-72
2022/05/18 10:46:21;;;;;;;6.00;5.40;;;23.20;8.60;;;23.82;39.21;102024.56;5011226;28;20798;-72
2022/05/18 10:48:57;;;;;;;7.50;4.70;;;23.30;7.90;;;23.54;38.80;102020.19;5010762;28;20429;-74
2022/05/18 10:51:33;;;;;;;6.43;5.80;;;23.40;4.90;;;23.25;40.03;102032.53;5010294;28;20419;-74
2022/05/18 10:54:16;;;;;;;8.43;5.30;;;23.10;6.80;;;23.32;40.45;102033.19;5010301;28;21005;-71
2022/05/18 10:56:47;;;;;;;9.03;6.80;;;23.00;8.20;;;23.45;39.77;102019.00;5010879;28;20483;-72
2022/05/18 10:59:43;;;;;;;7.27;5.90;;;23.00;8.20;;;23.34;40.10;102017.16;5010285;28;20507;-72
2022/05/18 11:02:27;;;;;;;6.67;6.17;;;23.00;7.90;;;23.64;39.82;102022.19;5010370;28;20518;-71
2022/05/18 11:05:03;;;;;;;7.03;6.33;;;23.20;8.50;;;23.82;39.41;102014.34;5010633;28;20817;-72
2022/05/18 11:07:33;;;;;;;7.40;5.50;;;23.30;8.20;;;23.97;39.42;102013.66;5011690;28;20620;-73
2022/05/18 11:10:02;;;;;;;6.87;6.27;;;23.50;8.60;;;23.96;39.06;101997.34;5014380;28;20650;-71
2022/05/18 11:12:46;;;;;;;6.97;5.97;;;23.60;7.20;;;23.71;40.09;101998.81;5017118;28;20400;-72